sensor_id;sensor_type;location;lat;lon;timestamp;P1;durP1;ratioP1;P2;durP2;ratioP2
8413;SDS011;4244;48.684;9.028;2024-02-23T00:02:08;0.80;;;0.40;;
8413;SDS011;4244;48.684;9.028;2024-02-23T00:04:34;1.00;;;0.23;;
8413;SDS011;4244;48.684;9.028;2024-02-23T00:06:59;1.03;;;0.40;;
8413;SDS011;4244;48.684;9.028;2024-02-23T00:09:27;0.80;;;0.30;;
8413;SDS011;4244;48.684;9.028;2024-02-23T00:11:53;1.23;;;0.37;;
8413;SDS011;4244;48.684;9.028;2024-02-23T00:14:19;0.70;;;0.30;;
8413;SDS011;4244;48.684;9.028;2024-02-23T00:16:45;2.20;;;0.50;;
8413;SDS011;4244;48.684;9.028;2024-02-23T00:19:11;0.60;;;0.30;;
8413;SDS011;4244;48.684;9.028;2024-02-23T00:21:37;0.70;;;0.30;;
8413;SDS011;4244;48.684;9.028;2024-02-23T00:24:04;1.00;;;0.40;;
8413;SDS011;4244;48.684;9.028;2024-02-23T00:26:30;3.03;;;0.50;;
8413;SDS011;4244;48.684;9.028;2024-02-23T00:28:56;0.60;;;0.30;;
8413;SDS011;4244;48.684;9.028;2024-02-23T00:31:21;1.40;;;0.60;;
8413;SDS011;4244;48.684;9.028;2024-02-23T00:33:47;1.87;;;0.73;;
8413;SDS011;4244;48.684;9.028;2024-02-23T00:36:13;2.77;;;0.40;;
8413;SDS011;4244;48.684;9.028;2024-02-23T00:38:39;1.47;;;0.70;;
8413;SDS011;4244;48.684;9.028;2024-02-23T00:41:05;1.60;;;0.80;;
8413;SDS011;4244;48.684;9.028;2024-02-23T00:43:41;1.33;;;0.60;;
8413;SDS011;4244;48.684;9.028;2024-02-23T00:46:07;1.87;;;0.50;;
8413;SDS011;4244;48.684;9.028;2024-02-23T00:48:33;3.63;;;0.87;;
8413;SDS011;4244;48.684;9.028;2024-02-23T00:51:00;4.10;;;0.60;;
8413;SDS011;4244;48.684;9.028;2024-02-23T00:53:27;0.90;;;0.50;;
8413;SDS011;4244;48.684;9.028;2024-02-23T00:55:53;2.60;;;0.90;;
8413;SDS011;4244;48.684;9.028;2024-02-23T00:58:19;1.30;;;1.03;;
8413;SDS011;4244;48.684;9.028;2024-02-23T01:00:45;1.50;;;0.60;;
8413;SDS011;4244;48.684;9.028;2024-02-23T01:03:11;0.90;;;0.50;;
8413;SDS011;4244;48.684;9.028;2024-02-23T01:05:37;1.47;;;0.77;;
8413;SDS011;4244;48.684;9.028;2024-02-23T01:08:04;4.00;;;0.73;;
8413;SDS011;4244;48.684;9.028;2024-02-23T01:10:31;2.50;;;0.63;;
8413;SDS011;4244;48.684;9.028;2024-02-23T01:12:57;3.33;;;1.07;;
8413;SDS011;4244;48.684;9.028;2024-02-23T01:15:23;1.40;;;0.70;;
8413;SDS011;4244;48.684;9.028;2024-02-23T01:17:49;3.53;;;1.00;;
8413;SDS011;4244;48.684;9.028;2024-02-23T01:20:15;1.70;;;0.57;;
8413;SDS011;4244;48.684;9.028;2024-02-23T01:22:42;4.60;;;0.90;;
8413;SDS011;4244;48.684;9.028;2024-02-23T01:25:08;1.20;;;0.60;;
8413;SDS011;4244;48.684;9.028;2024-02-23T01:27:34;1.73;;;0.60;;
8413;SDS011;4244;48.684;9.028;2024-02-23T01:30:00;3.93;;;1.70;;
8413;SDS011;4244;48.684;9.028;2024-02-23T01:32:26;2.87;;;1.90;;
8413;SDS011;4244;48.684;9.028;2024-02-23T01:34:53;3.10;;;1.10;;
8413;SDS011;4244;48.684;9.028;2024-02-23T01:37:19;1.93;;;0.57;;
8413;SDS011;4244;48.684;9.028;2024-02-23T01:39:45;3.60;;;0.67;;
8413;SDS011;4244;48.684;9.028;2024-02-23T01:42:11;2.47;;;1.00;;
8413;SDS011;4244;48.684;9.028;2024-02-23T01:44:39;2.50;;;0.90;;
8413;SDS011;4244;48.684;9.028;2024-02-23T01:47:05;3.60;;;0.90;;
8413;SDS011;4244;48.684;9.028;2024-02-23T01:49:31;1.30;;;0.67;;
8413;SDS011;4244;48.684;9.028;2024-02-23T01:51:58;0.90;;;0.60;;
8413;SDS011;4244;48.684;9.028;2024-02-23T01:54:24;3.77;;;0.70;;
8413;SDS011;4244;48.684;9.028;2024-02-23T01:56:51;2.90;;;0.70;;
8413;SDS011;4244;48.684;9.028;2024-02-23T01:59:17;1.80;;;0.57;;
8413;SDS011;4244;48.684;9.028;2024-02-23T02:01:44;2.60;;;0.83;;
8413;SDS011;4244;48.684;9.028;2024-02-23T02:04:10;4.20;;;0.70;;
8413;SDS011;4244;48.684;9.028;2024-02-23T02:06:36;2.67;;;0.60;;
8413;SDS011;4244;48.684;9.028;2024-02-23T02:09:02;4.00;;;1.20;;
8413;SDS011;4244;48.684;9.028;2024-02-23T02:11:30;2.30;;;0.70;;
8413;SDS011;4244;48.684;9.028;2024-02-23T02:13:56;2.80;;;1.00;;
8413;SDS011;4244;48.684;9.028;2024-02-23T02:16:22;1.60;;;0.77;;
8413;SDS011;4244;48.684;9.028;2024-02-23T02:18:48;3.10;;;0.70;;
8413;SDS011;4244;48.684;9.028;2024-02-23T02:21:14;2.13;;;0.60;;
8413;SDS011;4244;48.684;9.028;2024-02-23T02:23:41;3.13;;;1.03;;
8413;SDS011;4244;48.684;9.028;2024-02-23T02:26:08;2.30;;;0.60;;
8413;SDS011;4244;48.684;9.028;2024-02-23T02:28:34;1.73;;;0.80;;
8413;SDS011;4244;48.684;9.028;2024-02-23T02:31:00;1.40;;;0.60;;
8413;SDS011;4244;48.684;9.028;2024-02-23T02:33:26;1.40;;;0.60;;
8413;SDS011;4244;48.684;9.028;2024-02-23T02:35:52;3.30;;;0.80;;
8413;SDS011;4244;48.684;9.028;2024-02-23T02:38:18;1.90;;;0.77;;
8413;SDS011;4244;48.684;9.028;2024-02-23T02:40:44;2.00;;;0.67;;
8413;SDS011;4244;48.684;9.028;2024-02-23T02:43:10;1.67;;;0.57;;
8413;SDS011;4244;48.684;9.028;2024-02-23T02:45:36;2.23;;;0.50;;
8413;SDS011;4244;48.684;9.028;2024-02-23T02:48:02;1.63;;;0.87;;
8413;SDS011;4244;48.684;9.028;2024-02-23T02:50:29;1.27;;;0.50;;
8413;SDS011;4244;48.684;9.028;2024-02-23T02:52:54;1.87;;;0.67;;
8413;SDS011;4244;48.684;9.028;2024-02-23T02:55:20;2.50;;;1.00;;
8413;SDS011;4244;48.684;9.028;2024-02-23T02:57:46;3.00;;;0.80;;
8413;SDS011;4244;48.684;9.028;2024-02-23T03:00:12;1.53;;;0.70;;
8413;SDS011;4244;48.684;9.028;2024-02-23T03:02:39;4.67;;;0.87;;
8413;SDS011;4244;48.684;9.028;2024-02-23T03:05:05;1.53;;;0.63;;
8413;SDS011;4244;48.684;9.028;2024-02-23T03:07:31;1.90;;;0.53;;
8413;SDS011;4244;48.684;9.028;2024-02-23T03:09:57;2.70;;;0.70;;
8413;SDS011;4244;48.684;9.028;2024-02-23T03:12:23;2.40;;;0.67;;
8413;SDS011;4244;48.684;9.028;2024-02-23T03:17:35;5.93;;;0.80;;
8413;SDS011;4244;48.684;9.028;2024-02-23T03:20:02;2.60;;;0.80;;
8413;SDS011;4244;48.684;9.028;2024-02-23T03:22:34;2.80;;;0.67;;
8413;SDS011;4244;48.684;9.028;2024-02-23T03:25:01;1.97;;;0.87;;
8413;SDS011;4244;48.684;9.028;2024-02-23T03:27:33;1.10;;;0.50;;
8413;SDS011;4244;48.684;9.028;2024-02-23T03:29:59;2.23;;;0.70;;
8413;SDS011;4244;48.684;9.028;2024-02-23T03:32:25;2.67;;;0.80;;
8413;SDS011;4244;48.684;9.028;2024-02-23T03:34:51;2.80;;;0.80;;
8413;SDS011;4244;48.684;9.028;2024-02-23T03:37:17;1.70;;;0.83;;
8413;SDS011;4244;48.684;9.028;2024-02-23T03:39:43;1.70;;;0.50;;
8413;SDS011;4244;48.684;9.028;2024-02-23T03:42:09;3.43;;;0.70;;
8413;SDS011;4244;48.684;9.028;2024-02-23T03:44:35;1.97;;;0.97;;
8413;SDS011;4244;48.684;9.028;2024-02-23T03:47:01;1.20;;;0.67;;
8413;SDS011;4244;48.684;9.028;2024-02-23T03:49:27;1.53;;;0.60;;
8413;SDS011;4244;48.684;9.028;2024-02-23T03:51:53;2.10;;;0.70;;
8413;SDS011;4244;48.684;9.028;2024-02-23T03:54:19;2.90;;;0.60;;
8413;SDS011;4244;48.684;9.028;2024-02-23T03:56:45;1.17;;;0.80;;
8413;SDS011;4244;48.684;9.028;2024-02-23T03:59:11;1.70;;;0.80;;
8413;SDS011;4244;48.684;9.028;2024-02-23T04:01:38;7.30;;;1.00;;
8413;SDS011;4244;48.684;9.028;2024-02-23T04:04:04;2.43;;;0.73;;
8413;SDS011;4244;48.684;9.028;2024-02-23T04:06:30;1.00;;;0.60;;
8413;SDS011;4244;48.684;9.028;2024-02-23T04:08:57;4.03;;;0.80;;
8413;SDS011;4244;48.684;9.028;2024-02-23T04:11:23;3.97;;;1.07;;
8413;SDS011;4244;48.684;9.028;2024-02-23T04:13:49;2.67;;;0.67;;
8413;SDS011;4244;48.684;9.028;2024-02-23T04:16:15;2.53;;;0.90;;
8413;SDS011;4244;48.684;9.028;2024-02-23T04:18:41;2.07;;;0.70;;
8413;SDS011;4244;48.684;9.028;2024-02-23T04:21:07;1.70;;;0.73;;
8413;SDS011;4244;48.684;9.028;2024-02-23T04:23:33;2.33;;;0.70;;
8413;SDS011;4244;48.684;9.028;2024-02-23T04:25:59;2.60;;;0.97;;
8413;SDS011;4244;48.684;9.028;2024-02-23T04:28:25;3.10;;;0.67;;
8413;SDS011;4244;48.684;9.028;2024-02-23T04:30:55;3.33;;;0.60;;
8413;SDS011;4244;48.684;9.028;2024-02-23T04:33:21;5.37;;;0.80;;
8413;SDS011;4244;48.684;9.028;2024-02-23T04:35:48;2.23;;;0.80;;
8413;SDS011;4244;48.684;9.028;2024-02-23T04:38:14;1.20;;;0.60;;
8413;SDS011;4244;48.684;9.028;2024-02-23T04:40:40;1.50;;;0.90;;
8413;SDS011;4244;48.684;9.028;2024-02-23T04:43:06;2.50;;;0.73;;
8413;SDS011;4244;48.684;9.028;2024-02-23T04:45:32;3.40;;;0.80;;
8413;SDS011;4244;48.684;9.028;2024-02-23T04:47:58;2.20;;;0.80;;
8413;SDS011;4244;48.684;9.028;2024-02-23T04:50:24;1.57;;;0.70;;
8413;SDS011;4244;48.684;9.028;2024-02-23T04:52:50;2.03;;;0.70;;
8413;SDS011;4244;48.684;9.028;2024-02-23T04:55:16;2.90;;;0.90;;
8413;SDS011;4244;48.684;9.028;2024-02-23T04:57:42;2.33;;;0.63;;
8413;SDS011;4244;48.684;9.028;2024-02-23T05:00:08;2.03;;;0.63;;
8413;SDS011;4244;48.684;9.028;2024-02-23T05:02:34;4.30;;;0.90;;
8413;SDS011;4244;48.684;9.028;2024-02-23T05:05:03;3.47;;;0.70;;
8413;SDS011;4244;48.684;9.028;2024-02-23T05:07:33;1.83;;;1.10;;
8413;SDS011;4244;48.684;9.028;2024-02-23T05:09:59;1.83;;;0.63;;
8413;SDS011;4244;48.684;9.028;2024-02-23T05:12:25;2.80;;;0.60;;
8413;SDS011;4244;48.684;9.028;2024-02-23T05:14:51;3.13;;;0.87;;
8413;SDS011;4244;48.684;9.028;2024-02-23T05:17:18;1.43;;;0.93;;
8413;SDS011;4244;48.684;9.028;2024-02-23T05:19:44;2.70;;;0.90;;
8413;SDS011;4244;48.684;9.028;2024-02-23T05:22:11;1.97;;;1.03;;
8413;SDS011;4244;48.684;9.028;2024-02-23T05:24:37;2.80;;;1.03;;
8413;SDS011;4244;48.684;9.028;2024-02-23T05:27:03;3.27;;;1.40;;
8413;SDS011;4244;48.684;9.028;2024-02-23T05:29:30;1.97;;;1.30;;
8413;SDS011;4244;48.684;9.028;2024-02-23T05:31:56;1.57;;;0.83;;
8413;SDS011;4244;48.684;9.028;2024-02-23T05:34:22;2.27;;;0.70;;
8413;SDS011;4244;48.684;9.028;2024-02-23T05:36:48;4.00;;;1.20;;
8413;SDS011;4244;48.684;9.028;2024-02-23T05:39:15;3.07;;;0.80;;
8413;SDS011;4244;48.684;9.028;2024-02-23T05:41:42;1.80;;;0.90;;
8413;SDS011;4244;48.684;9.028;2024-02-23T05:44:08;1.90;;;1.53;;
8413;SDS011;4244;48.684;9.028;2024-02-23T05:46:35;3.47;;;0.93;;
8413;SDS011;4244;48.684;9.028;2024-02-23T05:49:02;1.20;;;0.77;;
8413;SDS011;4244;48.684;9.028;2024-02-23T05:51:33;2.03;;;0.80;;
8413;SDS011;4244;48.684;9.028;2024-02-23T05:54:00;3.90;;;0.87;;
8413;SDS011;4244;48.684;9.028;2024-02-23T05:56:26;2.03;;;0.77;;
8413;SDS011;4244;48.684;9.028;2024-02-23T05:58:52;1.83;;;0.83;;
8413;SDS011;4244;48.684;9.028;2024-02-23T06:01:19;2.33;;;1.20;;
8413;SDS011;4244;48.684;9.028;2024-02-23T06:03:45;4.30;;;1.30;;
8413;SDS011;4244;48.684;9.028;2024-02-23T06:06:12;1.67;;;0.90;;
8413;SDS011;4244;48.684;9.028;2024-02-23T06:08:39;6.00;;;1.60;;
8413;SDS011;4244;48.684;9.028;2024-02-23T06:11:06;1.90;;;0.70;;
8413;SDS011;4244;48.684;9.028;2024-02-23T06:13:32;3.00;;;1.30;;
8413;SDS011;4244;48.684;9.028;2024-02-23T06:15:59;2.73;;;1.20;;
8413;SDS011;4244;48.684;9.028;2024-02-23T06:18:25;2.63;;;0.90;;
8413;SDS011;4244;48.684;9.028;2024-02-23T06:20:51;2.20;;;1.10;;
8413;SDS011;4244;48.684;9.028;2024-02-23T06:23:17;2.83;;;1.20;;
8413;SDS011;4244;48.684;9.028;2024-02-23T06:25:43;2.67;;;1.40;;
8413;SDS011;4244;48.684;9.028;2024-02-23T06:28:09;2.10;;;1.30;;
8413;SDS011;4244;48.684;9.028;2024-02-23T06:30:36;4.13;;;1.00;;
8413;SDS011;4244;48.684;9.028;2024-02-23T06:33:02;2.57;;;1.40;;
8413;SDS011;4244;48.684;9.028;2024-02-23T06:35:29;2.97;;;1.10;;
8413;SDS011;4244;48.684;9.028;2024-02-23T06:37:56;2.23;;;0.87;;
8413;SDS011;4244;48.684;9.028;2024-02-23T06:40:22;2.00;;;1.00;;
8413;SDS011;4244;48.684;9.028;2024-02-23T06:42:48;3.07;;;1.20;;
8413;SDS011;4244;48.684;9.028;2024-02-23T06:45:15;2.13;;;1.30;;
8413;SDS011;4244;48.684;9.028;2024-02-23T06:47:41;4.90;;;1.50;;
8413;SDS011;4244;48.684;9.028;2024-02-23T06:50:07;1.67;;;1.10;;
8413;SDS011;4244;48.684;9.028;2024-02-23T06:52:33;2.77;;;1.20;;
8413;SDS011;4244;48.684;9.028;2024-02-23T06:55:00;6.73;;;1.30;;
8413;SDS011;4244;48.684;9.028;2024-02-23T06:57:26;2.10;;;1.07;;
8413;SDS011;4244;48.684;9.028;2024-02-23T06:59:52;3.47;;;1.40;;
8413;SDS011;4244;48.684;9.028;2024-02-23T07:02:18;3.43;;;1.17;;
8413;SDS011;4244;48.684;9.028;2024-02-23T07:04:44;4.60;;;1.43;;
8413;SDS011;4244;48.684;9.028;2024-02-23T07:07:10;4.03;;;1.00;;
8413;SDS011;4244;48.684;9.028;2024-02-23T07:09:36;3.40;;;1.40;;
8413;SDS011;4244;48.684;9.028;2024-02-23T07:12:06;2.30;;;1.27;;
8413;SDS011;4244;48.684;9.028;2024-02-23T07:14:32;2.70;;;1.20;;
8413;SDS011;4244;48.684;9.028;2024-02-23T07:16:58;1.70;;;0.93;;
8413;SDS011;4244;48.684;9.028;2024-02-23T07:19:24;2.00;;;1.00;;
8413;SDS011;4244;48.684;9.028;2024-02-23T07:21:50;1.93;;;0.70;;
8413;SDS011;4244;48.684;9.028;2024-02-23T07:24:16;4.17;;;1.07;;
8413;SDS011;4244;48.684;9.028;2024-02-23T07:26:42;1.50;;;1.00;;
8413;SDS011;4244;48.684;9.028;2024-02-23T07:29:08;2.30;;;0.97;;
8413;SDS011;4244;48.684;9.028;2024-02-23T07:31:34;7.83;;;2.00;;
8413;SDS011;4244;48.684;9.028;2024-02-23T07:34:00;2.73;;;1.20;;
8413;SDS011;4244;48.684;9.028;2024-02-23T07:36:27;6.97;;;1.37;;
8413;SDS011;4244;48.684;9.028;2024-02-23T07:38:53;6.10;;;1.20;;
8413;SDS011;4244;48.684;9.028;2024-02-23T07:41:20;3.10;;;1.00;;
8413;SDS011;4244;48.684;9.028;2024-02-23T07:43:46;3.90;;;1.30;;
8413;SDS011;4244;48.684;9.028;2024-02-23T07:46:12;2.50;;;1.10;;
8413;SDS011;4244;48.684;9.028;2024-02-23T07:48:38;2.20;;;1.10;;
8413;SDS011;4244;48.684;9.028;2024-02-23T07:51:05;3.13;;;1.00;;
8413;SDS011;4244;48.684;9.028;2024-02-23T07:53:31;3.80;;;1.33;;
8413;SDS011;4244;48.684;9.028;2024-02-23T07:55:59;1.73;;;0.83;;
8413;SDS011;4244;48.684;9.028;2024-02-23T07:58:27;2.80;;;1.03;;
8413;SDS011;4244;48.684;9.028;2024-02-23T08:00:53;3.00;;;1.07;;
8413;SDS011;4244;48.684;9.028;2024-02-23T08:03:19;2.83;;;1.10;;
8413;SDS011;4244;48.684;9.028;2024-02-23T08:05:45;4.27;;;0.87;;
8413;SDS011;4244;48.684;9.028;2024-02-23T08:08:12;3.17;;;1.43;;
8413;SDS011;4244;48.684;9.028;2024-02-23T08:10:38;6.40;;;1.57;;
8413;SDS011;4244;48.684;9.028;2024-02-23T08:13:04;1.80;;;0.70;;
8413;SDS011;4244;48.684;9.028;2024-02-23T08:15:30;4.40;;;1.30;;
8413;SDS011;4244;48.684;9.028;2024-02-23T08:17:56;2.60;;;1.07;;
8413;SDS011;4244;48.684;9.028;2024-02-23T08:20:22;4.80;;;1.73;;
8413;SDS011;4244;48.684;9.028;2024-02-23T08:22:48;3.53;;;1.27;;
8413;SDS011;4244;48.684;9.028;2024-02-23T08:25:14;6.10;;;1.40;;
8413;SDS011;4244;48.684;9.028;2024-02-23T08:27:41;3.33;;;1.40;;
8413;SDS011;4244;48.684;9.028;2024-02-23T08:30:08;2.77;;;1.20;;
8413;SDS011;4244;48.684;9.028;2024-02-23T08:32:35;4.90;;;1.00;;
8413;SDS011;4244;48.684;9.028;2024-02-23T08:35:01;1.73;;;0.80;;
8413;SDS011;4244;48.684;9.028;2024-02-23T08:37:28;3.13;;;0.90;;
8413;SDS011;4244;48.684;9.028;2024-02-23T08:39:54;3.17;;;1.33;;
8413;SDS011;4244;48.684;9.028;2024-02-23T08:42:20;3.17;;;1.43;;
8413;SDS011;4244;48.684;9.028;2024-02-23T08:44:46;3.30;;;1.27;;
8413;SDS011;4244;48.684;9.028;2024-02-23T08:47:12;3.53;;;1.53;;
8413;SDS011;4244;48.684;9.028;2024-02-23T08:49:38;3.23;;;1.30;;
8413;SDS011;4244;48.684;9.028;2024-02-23T08:52:04;4.93;;;1.27;;
8413;SDS011;4244;48.684;9.028;2024-02-23T08:54:30;2.50;;;0.90;;
8413;SDS011;4244;48.684;9.028;2024-02-23T08:56:56;3.10;;;0.97;;
8413;SDS011;4244;48.684;9.028;2024-02-23T08:59:22;2.20;;;1.17;;
8413;SDS011;4244;48.684;9.028;2024-02-23T09:01:48;9.03;;;1.37;;
8413;SDS011;4244;48.684;9.028;2024-02-23T09:04:14;5.80;;;1.17;;
8413;SDS011;4244;48.684;9.028;2024-02-23T09:06:40;3.63;;;1.40;;
8413;SDS011;4244;48.684;9.028;2024-02-23T09:09:06;2.43;;;1.20;;
8413;SDS011;4244;48.684;9.028;2024-02-23T09:11:33;5.87;;;1.50;;
8413;SDS011;4244;48.684;9.028;2024-02-23T09:14:00;2.80;;;1.10;;
8413;SDS011;4244;48.684;9.028;2024-02-23T09:16:26;2.80;;;0.93;;
8413;SDS011;4244;48.684;9.028;2024-02-23T09:18:52;5.57;;;0.70;;
8413;SDS011;4244;48.684;9.028;2024-02-23T09:21:18;5.10;;;1.20;;
8413;SDS011;4244;48.684;9.028;2024-02-23T09:23:44;2.40;;;0.90;;
8413;SDS011;4244;48.684;9.028;2024-02-23T09:26:11;2.30;;;0.80;;
8413;SDS011;4244;48.684;9.028;2024-02-23T09:28:37;5.37;;;2.57;;
8413;SDS011;4244;48.684;9.028;2024-02-23T09:31:05;5.90;;;1.30;;
8413;SDS011;4244;48.684;9.028;2024-02-23T09:33:31;5.17;;;1.40;;
8413;SDS011;4244;48.684;9.028;2024-02-23T09:35:58;6.07;;;1.20;;
8413;SDS011;4244;48.684;9.028;2024-02-23T09:38:24;2.87;;;1.00;;
8413;SDS011;4244;48.684;9.028;2024-02-23T09:40:51;5.93;;;1.17;;
8413;SDS011;4244;48.684;9.028;2024-02-23T09:43:17;6.87;;;1.73;;
8413;SDS011;4244;48.684;9.028;2024-02-23T09:45:44;2.57;;;1.00;;
8413;SDS011;4244;48.684;9.028;2024-02-23T09:48:10;3.13;;;0.97;;
8413;SDS011;4244;48.684;9.028;2024-02-23T09:50:37;2.60;;;1.00;;
8413;SDS011;4244;48.684;9.028;2024-02-23T09:53:05;3.10;;;1.00;;
8413;SDS011;4244;48.684;9.028;2024-02-23T09:55:34;6.47;;;1.20;;
8413;SDS011;4244;48.684;9.028;2024-02-23T09:58:00;5.70;;;1.37;;
8413;SDS011;4244;48.684;9.028;2024-02-23T10:00:27;2.40;;;1.20;;
8413;SDS011;4244;48.684;9.028;2024-02-23T10:02:53;3.00;;;1.30;;
8413;SDS011;4244;48.684;9.028;2024-02-23T10:05:20;4.83;;;1.40;;
8413;SDS011;4244;48.684;9.028;2024-02-23T10:07:48;4.13;;;1.87;;
8413;SDS011;4244;48.684;9.028;2024-02-23T10:10:23;3.33;;;1.10;;
8413;SDS011;4244;48.684;9.028;2024-02-23T10:12:51;4.40;;;1.53;;
8413;SDS011;4244;48.684;9.028;2024-02-23T10:15:17;7.00;;;1.40;;
8413;SDS011;4244;48.684;9.028;2024-02-23T10:17:43;2.93;;;1.33;;
8413;SDS011;4244;48.684;9.028;2024-02-23T10:20:09;2.03;;;1.30;;
8413;SDS011;4244;48.684;9.028;2024-02-23T10:22:36;6.73;;;1.77;;
8413;SDS011;4244;48.684;9.028;2024-02-23T10:25:01;4.83;;;1.27;;
8413;SDS011;4244;48.684;9.028;2024-02-23T10:27:27;4.23;;;1.53;;
8413;SDS011;4244;48.684;9.028;2024-02-23T10:29:53;2.40;;;1.30;;
8413;SDS011;4244;48.684;9.028;2024-02-23T10:32:19;8.87;;;1.30;;
8413;SDS011;4244;48.684;9.028;2024-02-23T10:34:47;1.60;;;0.90;;
8413;SDS011;4244;48.684;9.028;2024-02-23T10:37:14;2.80;;;1.07;;
8413;SDS011;4244;48.684;9.028;2024-02-23T10:39:40;3.33;;;1.20;;
8413;SDS011;4244;48.684;9.028;2024-02-23T10:42:07;2.97;;;1.07;;
8413;SDS011;4244;48.684;9.028;2024-02-23T10:44:34;3.10;;;1.50;;
8413;SDS011;4244;48.684;9.028;2024-02-23T10:47:00;2.50;;;1.13;;
8413;SDS011;4244;48.684;9.028;2024-02-23T10:49:25;2.30;;;0.90;;
8413;SDS011;4244;48.684;9.028;2024-02-23T10:51:51;3.20;;;1.00;;
8413;SDS011;4244;48.684;9.028;2024-02-23T10:54:18;3.13;;;1.87;;
8413;SDS011;4244;48.684;9.028;2024-02-23T10:56:54;3.77;;;1.17;;
8413;SDS011;4244;48.684;9.028;2024-02-23T10:59:20;2.10;;;0.83;;
8413;SDS011;4244;48.684;9.028;2024-02-23T11:01:51;7.23;;;0.93;;
8413;SDS011;4244;48.684;9.028;2024-02-23T11:04:18;4.10;;;1.50;;
8413;SDS011;4244;48.684;9.028;2024-02-23T11:06:49;1.47;;;0.80;;
8413;SDS011;4244;48.684;9.028;2024-02-23T11:09:20;3.33;;;0.90;;
8413;SDS011;4244;48.684;9.028;2024-02-23T11:11:56;2.33;;;1.10;;
8413;SDS011;4244;48.684;9.028;2024-02-23T11:14:35;5.50;;;1.10;;
8413;SDS011;4244;48.684;9.028;2024-02-23T11:17:01;3.53;;;0.90;;
8413;SDS011;4244;48.684;9.028;2024-02-23T11:19:38;3.37;;;1.30;;
8413;SDS011;4244;48.684;9.028;2024-02-23T11:22:04;2.57;;;0.90;;
8413;SDS011;4244;48.684;9.028;2024-02-23T11:24:30;2.50;;;1.13;;
8413;SDS011;4244;48.684;9.028;2024-02-23T11:26:59;3.07;;;1.00;;
8413;SDS011;4244;48.684;9.028;2024-02-23T11:29:33;6.60;;;1.20;;
8413;SDS011;4244;48.684;9.028;2024-02-23T11:31:59;4.10;;;1.30;;
8413;SDS011;4244;48.684;9.028;2024-02-23T11:34:29;3.87;;;1.13;;
8413;SDS011;4244;48.684;9.028;2024-02-23T11:36:55;5.00;;;1.30;;
8413;SDS011;4244;48.684;9.028;2024-02-23T11:39:22;8.90;;;1.67;;
8413;SDS011;4244;48.684;9.028;2024-02-23T11:41:48;3.93;;;1.33;;
8413;SDS011;4244;48.684;9.028;2024-02-23T11:44:17;3.37;;;1.40;;
8413;SDS011;4244;48.684;9.028;2024-02-23T11:46:43;2.30;;;1.20;;
8413;SDS011;4244;48.684;9.028;2024-02-23T11:49:10;4.47;;;1.43;;
8413;SDS011;4244;48.684;9.028;2024-02-23T11:51:35;4.17;;;1.77;;
8413;SDS011;4244;48.684;9.028;2024-02-23T11:54:01;7.43;;;1.50;;
8413;SDS011;4244;48.684;9.028;2024-02-23T11:56:28;3.50;;;1.20;;
8413;SDS011;4244;48.684;9.028;2024-02-23T11:58:55;2.63;;;1.30;;
8413;SDS011;4244;48.684;9.028;2024-02-23T12:01:21;2.17;;;1.10;;
8413;SDS011;4244;48.684;9.028;2024-02-23T12:03:52;6.30;;;1.33;;
8413;SDS011;4244;48.684;9.028;2024-02-23T12:06:18;5.40;;;1.97;;
8413;SDS011;4244;48.684;9.028;2024-02-23T12:08:44;7.27;;;1.80;;
8413;SDS011;4244;48.684;9.028;2024-02-23T12:11:11;3.67;;;1.33;;
8413;SDS011;4244;48.684;9.028;2024-02-23T12:13:39;3.93;;;1.23;;
8413;SDS011;4244;48.684;9.028;2024-02-23T12:16:06;6.47;;;1.40;;
8413;SDS011;4244;48.684;9.028;2024-02-23T12:18:34;1.80;;;1.00;;
8413;SDS011;4244;48.684;9.028;2024-02-23T12:21:04;5.83;;;1.53;;
8413;SDS011;4244;48.684;9.028;2024-02-23T12:23:38;5.13;;;1.10;;
8413;SDS011;4244;48.684;9.028;2024-02-23T12:26:07;3.80;;;1.60;;
8413;SDS011;4244;48.684;9.028;2024-02-23T12:28:33;3.77;;;1.23;;
8413;SDS011;4244;48.684;9.028;2024-02-23T12:30:59;5.80;;;1.40;;
8413;SDS011;4244;48.684;9.028;2024-02-23T12:33:29;3.70;;;1.30;;
8413;SDS011;4244;48.684;9.028;2024-02-23T12:35:59;5.10;;;1.50;;
8413;SDS011;4244;48.684;9.028;2024-02-23T12:38:25;4.07;;;1.20;;
8413;SDS011;4244;48.684;9.028;2024-02-23T12:40:51;3.67;;;1.10;;
8413;SDS011;4244;48.684;9.028;2024-02-23T12:43:17;3.20;;;1.20;;
8413;SDS011;4244;48.684;9.028;2024-02-23T12:45:43;4.37;;;1.83;;
8413;SDS011;4244;48.684;9.028;2024-02-23T12:48:14;5.00;;;1.50;;
8413;SDS011;4244;48.684;9.028;2024-02-23T12:50:43;6.00;;;1.43;;
8413;SDS011;4244;48.684;9.028;2024-02-23T12:53:10;4.60;;;1.40;;
8413;SDS011;4244;48.684;9.028;2024-02-23T12:55:54;6.83;;;1.57;;
8413;SDS011;4244;48.684;9.028;2024-02-23T12:58:21;6.43;;;1.20;;
8413;SDS011;4244;48.684;9.028;2024-02-23T13:00:51;6.77;;;1.70;;
8413;SDS011;4244;48.684;9.028;2024-02-23T13:03:16;3.43;;;1.40;;
8413;SDS011;4244;48.684;9.028;2024-02-23T13:05:42;2.93;;;1.30;;
8413;SDS011;4244;48.684;9.028;2024-02-23T13:08:08;5.43;;;1.63;;
8413;SDS011;4244;48.684;9.028;2024-02-23T13:10:33;2.70;;;1.20;;
8413;SDS011;4244;48.684;9.028;2024-02-23T13:13:00;6.43;;;1.30;;
8413;SDS011;4244;48.684;9.028;2024-02-23T13:15:26;8.47;;;1.93;;
8413;SDS011;4244;48.684;9.028;2024-02-23T13:17:52;4.43;;;1.60;;
8413;SDS011;4244;48.684;9.028;2024-02-23T13:20:17;3.70;;;1.20;;
8413;SDS011;4244;48.684;9.028;2024-02-23T13:22:43;4.10;;;1.43;;
8413;SDS011;4244;48.684;9.028;2024-02-23T13:25:08;7.20;;;1.83;;
8413;SDS011;4244;48.684;9.028;2024-02-23T13:27:34;4.23;;;1.57;;
8413;SDS011;4244;48.684;9.028;2024-02-23T13:30:00;3.60;;;1.60;;
8413;SDS011;4244;48.684;9.028;2024-02-23T13:32:25;6.40;;;2.03;;
8413;SDS011;4244;48.684;9.028;2024-02-23T13:34:51;5.00;;;2.67;;
8413;SDS011;4244;48.684;9.028;2024-02-23T13:37:18;3.03;;;1.50;;
8413;SDS011;4244;48.684;9.028;2024-02-23T13:39:43;5.53;;;1.80;;
8413;SDS011;4244;48.684;9.028;2024-02-23T13:42:09;3.30;;;1.20;;
8413;SDS011;4244;48.684;9.028;2024-02-23T13:44:35;3.87;;;1.60;;
8413;SDS011;4244;48.684;9.028;2024-02-23T13:47:01;3.73;;;1.50;;
8413;SDS011;4244;48.684;9.028;2024-02-23T13:49:27;3.97;;;1.50;;
8413;SDS011;4244;48.684;9.028;2024-02-23T13:51:53;3.87;;;1.60;;
8413;SDS011;4244;48.684;9.028;2024-02-23T13:54:19;12.90;;;3.50;;
8413;SDS011;4244;48.684;9.028;2024-02-23T13:56:45;4.50;;;1.40;;
8413;SDS011;4244;48.684;9.028;2024-02-23T13:59:10;4.27;;;1.37;;
8413;SDS011;4244;48.684;9.028;2024-02-23T14:01:36;3.37;;;1.37;;
8413;SDS011;4244;48.684;9.028;2024-02-23T14:04:05;5.20;;;1.77;;
8413;SDS011;4244;48.684;9.028;2024-02-23T14:06:31;4.60;;;1.50;;
8413;SDS011;4244;48.684;9.028;2024-02-23T14:08:58;3.80;;;1.80;;
8413;SDS011;4244;48.684;9.028;2024-02-23T14:11:23;6.33;;;1.97;;
8413;SDS011;4244;48.684;9.028;2024-02-23T14:13:49;6.03;;;1.80;;
8413;SDS011;4244;48.684;9.028;2024-02-23T14:16:15;4.13;;;1.50;;
8413;SDS011;4244;48.684;9.028;2024-02-23T14:18:40;4.10;;;1.60;;
8413;SDS011;4244;48.684;9.028;2024-02-23T14:21:09;2.37;;;1.00;;
8413;SDS011;4244;48.684;9.028;2024-02-23T14:23:35;2.37;;;1.43;;
8413;SDS011;4244;48.684;9.028;2024-02-23T14:26:01;4.83;;;1.47;;
8413;SDS011;4244;48.684;9.028;2024-02-23T14:28:28;6.30;;;1.87;;
8413;SDS011;4244;48.684;9.028;2024-02-23T14:30:53;5.67;;;1.83;;
8413;SDS011;4244;48.684;9.028;2024-02-23T14:33:19;4.53;;;1.70;;
8413;SDS011;4244;48.684;9.028;2024-02-23T14:35:45;4.93;;;1.50;;
8413;SDS011;4244;48.684;9.028;2024-02-23T14:38:11;3.13;;;1.63;;
8413;SDS011;4244;48.684;9.028;2024-02-23T14:40:37;4.63;;;1.70;;
8413;SDS011;4244;48.684;9.028;2024-02-23T14:43:03;3.53;;;1.10;;
8413;SDS011;4244;48.684;9.028;2024-02-23T14:45:29;5.20;;;1.70;;
8413;SDS011;4244;48.684;9.028;2024-02-23T14:47:55;4.20;;;1.40;;
8413;SDS011;4244;48.684;9.028;2024-02-23T14:50:21;4.30;;;1.60;;
8413;SDS011;4244;48.684;9.028;2024-02-23T14:52:46;3.97;;;1.50;;
8413;SDS011;4244;48.684;9.028;2024-02-23T14:55:12;4.40;;;1.53;;
8413;SDS011;4244;48.684;9.028;2024-02-23T14:57:38;6.07;;;1.40;;
8413;SDS011;4244;48.684;9.028;2024-02-23T15:00:04;4.03;;;1.47;;
8413;SDS011;4244;48.684;9.028;2024-02-23T15:02:30;10.03;;;1.90;;
8413;SDS011;4244;48.684;9.028;2024-02-23T15:04:56;6.87;;;1.90;;
8413;SDS011;4244;48.684;9.028;2024-02-23T15:07:22;6.50;;;1.70;;
8413;SDS011;4244;48.684;9.028;2024-02-23T15:09:47;5.13;;;1.47;;
8413;SDS011;4244;48.684;9.028;2024-02-23T15:12:13;4.90;;;2.27;;
8413;SDS011;4244;48.684;9.028;2024-02-23T15:14:39;6.70;;;2.20;;